Terminal Aerodrome Forecast
Issued by NWS

Home | Current Version | Previous Version | Text Only | Print | Product List | Glossary On
Versions: 1 2 3 4 5 6 7 8 9 10 11 12 13 14 15 16 17 18 19 20 21 22 23
000
FTUS43 KLSX 152100 AAB
TAFCPS
TAF AMD
KCPS 152116Z 1521/1618 15012G22KT P6SM BKN010
     FM152200 15013G23KT P6SM SCT010 BKN030
      TEMPO 1523/1601 4SM -SHRA BR
     FM160100 20013G23KT P6SM VCSH BKN025
     FM160300 25015G25KT P6SM OVC015
     FM161200 29016G26KT P6SM OVC015=

USA.gov is the U.S. government's official web portal to all federal, state and local government web resources and services.